Weather at Syracuse Hancock International Airport

Public forecast

Using degrees Fahrenheit for public forecast. Weather courtesy of forecast.io.

Current aviation weather report (METAR) for Syracuse Hancock International Airport

Retrieved 2021/06/23 10:54 UTC (58 minutes ago):

KSYR 231054Z 23005KT 10SM SCT065 BKN080 BKN200 13/08 A3012 RMK AO2 SLP197 T01280083

Aviation forecast (TAF) for Syracuse Hancock International Airport

Retrieved 2021/06/23 06:40 UTC (5 hours ago):

TAF KSYR 230538Z 2306/2406 24005KT P6SM SKC FM231500 27006G12KT P6SM FEW250 FM232300 VRB03KT P6SM FEW250